sensor_id;sensor_type;location;lat;lon;timestamp;temperature;humidity
71175;DHT22;58876;51.994;4.472;2023-08-30T00:00:10;16.97;69.18
71175;DHT22;58876;51.994;4.472;2023-08-30T00:02:35;17.02;69.23
71175;DHT22;58876;51.994;4.472;2023-08-30T00:05:03;17.10;69.07
71175;DHT22;58876;51.994;4.472;2023-08-30T00:07:29;17.11;69.12
71175;DHT22;58876;51.994;4.472;2023-08-30T00:09:55;17.07;69.19
71175;DHT22;58876;51.994;4.472;2023-08-30T00:12:21;17.11;69.21
71175;DHT22;58876;51.994;4.472;2023-08-30T00:14:47;17.06;69.40
71175;DHT22;58876;51.994;4.472;2023-08-30T00:17:13;17.03;69.76
71175;DHT22;58876;51.994;4.472;2023-08-30T00:19:39;17.07;69.40
71175;DHT22;58876;51.994;4.472;2023-08-30T00:22:04;17.20;69.38
71175;DHT22;58876;51.994;4.472;2023-08-30T00:24:33;17.30;69.38
71175;DHT22;58876;51.994;4.472;2023-08-30T00:27:00;17.28;69.47
71175;DHT22;58876;51.994;4.472;2023-08-30T00:29:25;17.27;69.47
71175;DHT22;58876;51.994;4.472;2023-08-30T00:31:51;17.16;69.45
71175;DHT22;58876;51.994;4.472;2023-08-30T00:34:16;17.04;69.96
71175;DHT22;58876;51.994;4.472;2023-08-30T00:36:42;17.07;70.32
71175;DHT22;58876;51.994;4.472;2023-08-30T00:39:07;17.14;69.66
71175;DHT22;58876;51.994;4.472;2023-08-30T00:41:34;17.11;69.93
71175;DHT22;58876;51.994;4.472;2023-08-30T00:43:59;17.14;69.91
71175;DHT22;58876;51.994;4.472;2023-08-30T00:46:25;17.17;69.53
71175;DHT22;58876;51.994;4.472;2023-08-30T00:48:51;17.28;69.33
71175;DHT22;58876;51.994;4.472;2023-08-30T00:51:16;17.34;68.93
71175;DHT22;58876;51.994;4.472;2023-08-30T00:53:44;17.34;68.84
71175;DHT22;58876;51.994;4.472;2023-08-30T00:56:09;17.33;68.53
71175;DHT22;58876;51.994;4.472;2023-08-30T00:58:35;17.37;68.70
71175;DHT22;58876;51.994;4.472;2023-08-30T01:01:01;17.35;68.35
71175;DHT22;58876;51.994;4.472;2023-08-30T01:03:27;17.26;68.98
71175;DHT22;58876;51.994;4.472;2023-08-30T01:05:52;17.23;69.14
71175;DHT22;58876;51.994;4.472;2023-08-30T01:08:18;17.24;68.95
71175;DHT22;58876;51.994;4.472;2023-08-30T01:11:02;17.13;69.45
71175;DHT22;58876;51.994;4.472;2023-08-30T01:13:35;17.11;69.38
71175;DHT22;58876;51.994;4.472;2023-08-30T01:16:04;17.11;69.48
71175;DHT22;58876;51.994;4.472;2023-08-30T01:18:32;17.11;69.73
71175;DHT22;58876;51.994;4.472;2023-08-30T01:21:02;17.07;70.03
71175;DHT22;58876;51.994;4.472;2023-08-30T01:23:54;17.10;70.09
71175;DHT22;58876;51.994;4.472;2023-08-30T01:27:02;17.07;70.60
71175;DHT22;58876;51.994;4.472;2023-08-30T01:29:30;17.10;70.83
71175;DHT22;58876;51.994;4.472;2023-08-30T01:31:57;17.09;70.86
71175;DHT22;58876;51.994;4.472;2023-08-30T01:34:24;16.93;71.38
71175;DHT22;58876;51.994;4.472;2023-08-30T01:36:51;16.84;71.94
71175;DHT22;58876;51.994;4.472;2023-08-30T01:39:18;16.94;71.83
71175;DHT22;58876;51.994;4.472;2023-08-30T01:41:45;17.00;71.89
71175;DHT22;58876;51.994;4.472;2023-08-30T01:44:14;17.06;71.54
71175;DHT22;58876;51.994;4.472;2023-08-30T01:46:43;17.11;71.46
71175;DHT22;58876;51.994;4.472;2023-08-30T01:49:12;16.97;71.69
71175;DHT22;58876;51.994;4.472;2023-08-30T01:51:39;17.16;71.70
71175;DHT22;58876;51.994;4.472;2023-08-30T01:54:07;17.27;71.18
71175;DHT22;58876;51.994;4.472;2023-08-30T01:56:33;17.28;71.19
71175;DHT22;58876;51.994;4.472;2023-08-30T01:58:59;17.33;70.93
71175;DHT22;58876;51.994;4.472;2023-08-30T02:01:24;17.27;70.87
71175;DHT22;58876;51.994;4.472;2023-08-30T02:03:50;17.27;71.26
71175;DHT22;58876;51.994;4.472;2023-08-30T02:06:21;17.19;71.22
71175;DHT22;58876;51.994;4.472;2023-08-30T02:08:55;17.26;71.15
71175;DHT22;58876;51.994;4.472;2023-08-30T02:11:26;17.33;71.20
71175;DHT22;58876;51.994;4.472;2023-08-30T02:13:56;17.40;70.85
71175;DHT22;58876;51.994;4.472;2023-08-30T02:16:23;17.27;70.93
71175;DHT22;58876;51.994;4.472;2023-08-30T02:18:50;17.28;70.97
71175;DHT22;58876;51.994;4.472;2023-08-30T02:21:16;17.17;71.22
71175;DHT22;58876;51.994;4.472;2023-08-30T02:23:42;17.04;71.68
71175;DHT22;58876;51.994;4.472;2023-08-30T02:26:07;17.09;71.71
71175;DHT22;58876;51.994;4.472;2023-08-30T02:28:33;17.03;71.59
71175;DHT22;58876;51.994;4.472;2023-08-30T02:30:59;16.93;72.00
71175;DHT22;58876;51.994;4.472;2023-08-30T02:33:24;16.97;71.84
71175;DHT22;58876;51.994;4.472;2023-08-30T02:35:50;16.92;72.00
71175;DHT22;58876;51.994;4.472;2023-08-30T02:38:15;16.90;72.11
71175;DHT22;58876;51.994;4.472;2023-08-30T02:40:41;16.79;72.34
71175;DHT22;58876;51.994;4.472;2023-08-30T02:43:06;16.84;72.15
71175;DHT22;58876;51.994;4.472;2023-08-30T02:45:32;16.56;72.57
71175;DHT22;58876;51.994;4.472;2023-08-30T02:47:57;16.52;72.80
71175;DHT22;58876;51.994;4.472;2023-08-30T02:50:23;16.49;72.96
71175;DHT22;58876;51.994;4.472;2023-08-30T02:52:49;16.36;73.34
71175;DHT22;58876;51.994;4.472;2023-08-30T02:55:14;16.38;73.10
71175;DHT22;58876;51.994;4.472;2023-08-30T02:57:40;16.21;73.44
71175;DHT22;58876;51.994;4.472;2023-08-30T03:00:06;16.11;74.23
71175;DHT22;58876;51.994;4.472;2023-08-30T03:02:32;16.21;73.75
71175;DHT22;58876;51.994;4.472;2023-08-30T03:04:59;16.18;73.59
71175;DHT22;58876;51.994;4.472;2023-08-30T03:07:25;16.15;73.60
71175;DHT22;58876;51.994;4.472;2023-08-30T03:09:54;15.93;74.20
71175;DHT22;58876;51.994;4.472;2023-08-30T03:12:20;16.05;73.97
71175;DHT22;58876;51.994;4.472;2023-08-30T03:14:46;16.11;73.76
71175;DHT22;58876;51.994;4.472;2023-08-30T03:17:11;16.10;73.62
71175;DHT22;58876;51.994;4.472;2023-08-30T03:19:37;16.03;74.13
71175;DHT22;58876;51.994;4.472;2023-08-30T03:22:02;16.04;73.75
71175;DHT22;58876;51.994;4.472;2023-08-30T03:24:28;15.98;74.00
71175;DHT22;58876;51.994;4.472;2023-08-30T03:26:53;16.13;73.54
71175;DHT22;58876;51.994;4.472;2023-08-30T03:29:19;16.15;73.50
71175;DHT22;58876;51.994;4.472;2023-08-30T03:31:47;16.07;73.89
71175;DHT22;58876;51.994;4.472;2023-08-30T03:34:13;16.08;73.61
71175;DHT22;58876;51.994;4.472;2023-08-30T03:36:40;16.03;74.16
71175;DHT22;58876;51.994;4.472;2023-08-30T03:39:05;15.97;74.40
71175;DHT22;58876;51.994;4.472;2023-08-30T03:41:31;15.91;74.51
71175;DHT22;58876;51.994;4.472;2023-08-30T03:43:57;15.90;74.57
71175;DHT22;58876;51.994;4.472;2023-08-30T03:46:22;15.93;74.48
71175;DHT22;58876;51.994;4.472;2023-08-30T03:48:48;15.89;74.59
71175;DHT22;58876;51.994;4.472;2023-08-30T03:51:13;15.87;74.44
71175;DHT22;58876;51.994;4.472;2023-08-30T03:53:39;15.82;74.75
71175;DHT22;58876;51.994;4.472;2023-08-30T03:56:04;15.69;74.77
71175;DHT22;58876;51.994;4.472;2023-08-30T03:58:30;15.55;75.56
71175;DHT22;58876;51.994;4.472;2023-08-30T04:00:57;15.45;75.54
71175;DHT22;58876;51.994;4.472;2023-08-30T04:03:22;15.50;75.32
71175;DHT22;58876;51.994;4.472;2023-08-30T04:05:48;15.56;75.09
71175;DHT22;58876;51.994;4.472;2023-08-30T04:08:19;15.59;74.85
71175;DHT22;58876;51.994;4.472;2023-08-30T04:10:45;15.57;74.70
71175;DHT22;58876;51.994;4.472;2023-08-30T04:13:12;15.56;74.50
71175;DHT22;58876;51.994;4.472;2023-08-30T04:15:38;15.49;74.65
71175;DHT22;58876;51.994;4.472;2023-08-30T04:18:06;15.56;74.35
71175;DHT22;58876;51.994;4.472;2023-08-30T04:20:32;15.60;73.99
71175;DHT22;58876;51.994;4.472;2023-08-30T04:22:58;15.57;74.11
71175;DHT22;58876;51.994;4.472;2023-08-30T04:25:27;15.62;73.65
71175;DHT22;58876;51.994;4.472;2023-08-30T04:27:53;15.55;73.73
71175;DHT22;58876;51.994;4.472;2023-08-30T04:30:18;15.62;73.85
71175;DHT22;58876;51.994;4.472;2023-08-30T04:32:44;15.60;73.81
71175;DHT22;58876;51.994;4.472;2023-08-30T04:35:09;15.57;74.02
71175;DHT22;58876;51.994;4.472;2023-08-30T04:37:35;15.69;73.62
71175;DHT22;58876;51.994;4.472;2023-08-30T04:40:00;15.77;73.83
71175;DHT22;58876;51.994;4.472;2023-08-30T04:42:26;15.69;73.76
71175;DHT22;58876;51.994;4.472;2023-08-30T04:44:52;15.77;73.82
71175;DHT22;58876;51.994;4.472;2023-08-30T04:47:20;15.90;73.50
71175;DHT22;58876;51.994;4.472;2023-08-30T04:49:50;15.87;73.75
71175;DHT22;58876;51.994;4.472;2023-08-30T04:52:16;15.77;73.80
71175;DHT22;58876;51.994;4.472;2023-08-30T04:54:41;15.83;74.35
71175;DHT22;58876;51.994;4.472;2023-08-30T04:57:08;15.76;75.18
71175;DHT22;58876;51.994;4.472;2023-08-30T04:59:34;15.74;76.15
71175;DHT22;58876;51.994;4.472;2023-08-30T05:01:59;15.63;76.94
71175;DHT22;58876;51.994;4.472;2023-08-30T05:04:25;15.64;77.22
71175;DHT22;58876;51.994;4.472;2023-08-30T05:06:50;15.29;78.58
71175;DHT22;58876;51.994;4.472;2023-08-30T05:09:16;15.28;79.75
71175;DHT22;58876;51.994;4.472;2023-08-30T05:11:41;15.26;80.28
71175;DHT22;58876;51.994;4.472;2023-08-30T05:14:06;15.18;80.32
71175;DHT22;58876;51.994;4.472;2023-08-30T05:16:32;15.06;81.33
71175;DHT22;58876;51.994;4.472;2023-08-30T05:18:57;14.96;82.00
71175;DHT22;58876;51.994;4.472;2023-08-30T05:21:23;14.87;82.96
71175;DHT22;58876;51.994;4.472;2023-08-30T05:23:48;14.74;83.64
71175;DHT22;58876;51.994;4.472;2023-08-30T05:26:14;14.61;84.57
71175;DHT22;58876;51.994;4.472;2023-08-30T05:28:42;14.64;85.15
71175;DHT22;58876;51.994;4.472;2023-08-30T05:31:07;14.75;85.41
71175;DHT22;58876;51.994;4.472;2023-08-30T05:33:33;14.70;85.45
71175;DHT22;58876;51.994;4.472;2023-08-30T05:35:58;14.67;85.35
71175;DHT22;58876;51.994;4.472;2023-08-30T05:38:24;14.84;85.60
71175;DHT22;58876;51.994;4.472;2023-08-30T05:40:49;14.92;85.40
71175;DHT22;58876;51.994;4.472;2023-08-30T05:43:15;14.84;85.76
71175;DHT22;58876;51.994;4.472;2023-08-30T05:45:41;14.83;86.27
71175;DHT22;58876;51.994;4.472;2023-08-30T05:48:07;14.88;85.65
71175;DHT22;58876;51.994;4.472;2023-08-30T05:50:32;14.84;85.72
71175;DHT22;58876;51.994;4.472;2023-08-30T05:52:57;14.91;85.60
71175;DHT22;58876;51.994;4.472;2023-08-30T05:55:23;14.98;85.68
71175;DHT22;58876;51.994;4.472;2023-08-30T05:57:48;15.01;85.96
71175;DHT22;58876;51.994;4.472;2023-08-30T06:00:14;14.85;85.66
71175;DHT22;58876;51.994;4.472;2023-08-30T06:02:40;14.88;86.11
71175;DHT22;58876;51.994;4.472;2023-08-30T06:05:06;14.96;86.27
71175;DHT22;58876;51.994;4.472;2023-08-30T06:07:32;14.94;86.39
71175;DHT22;58876;51.994;4.472;2023-08-30T06:09:58;14.92;85.93
71175;DHT22;58876;51.994;4.472;2023-08-30T06:12:23;14.98;86.48
71175;DHT22;58876;51.994;4.472;2023-08-30T06:14:51;15.01;86.34
71175;DHT22;58876;51.994;4.472;2023-08-30T06:17:21;15.06;86.19
71175;DHT22;58876;51.994;4.472;2023-08-30T06:19:47;15.05;86.09
71175;DHT22;58876;51.994;4.472;2023-08-30T06:22:13;15.11;86.46
71175;DHT22;58876;51.994;4.472;2023-08-30T06:24:39;15.11;86.35
71175;DHT22;58876;51.994;4.472;2023-08-30T06:27:05;14.96;86.54
71175;DHT22;58876;51.994;4.472;2023-08-30T06:29:30;15.08;86.80
71175;DHT22;58876;51.994;4.472;2023-08-30T06:31:56;15.15;86.64
71175;DHT22;58876;51.994;4.472;2023-08-30T06:34:22;15.21;86.57
71175;DHT22;58876;51.994;4.472;2023-08-30T06:36:47;15.04;87.06
71175;DHT22;58876;51.994;4.472;2023-08-30T06:39:13;15.06;87.04
71175;DHT22;58876;51.994;4.472;2023-08-30T06:41:38;15.12;87.10
71175;DHT22;58876;51.994;4.472;2023-08-30T06:44:04;15.02;87.43
71175;DHT22;58876;51.994;4.472;2023-08-30T06:46:30;15.11;87.20
71175;DHT22;58876;51.994;4.472;2023-08-30T06:48:55;15.09;87.33
71175;DHT22;58876;51.994;4.472;2023-08-30T06:51:20;15.08;87.11
71175;DHT22;58876;51.994;4.472;2023-08-30T06:53:47;15.19;87.27
71175;DHT22;58876;51.994;4.472;2023-08-30T06:56:13;15.11;87.33
71175;DHT22;58876;51.994;4.472;2023-08-30T06:58:38;15.21;87.29
71175;DHT22;58876;51.994;4.472;2023-08-30T07:01:04;15.15;86.96
71175;DHT22;58876;51.994;4.472;2023-08-30T07:03:30;15.08;87.19
71175;DHT22;58876;51.994;4.472;2023-08-30T07:05:55;15.26;87.16
71175;DHT22;58876;51.994;4.472;2023-08-30T07:08:21;15.33;86.73
71175;DHT22;58876;51.994;4.472;2023-08-30T07:10:46;15.19;87.21
71175;DHT22;58876;51.994;4.472;2023-08-30T07:13:12;15.18;86.94
71175;DHT22;58876;51.994;4.472;2023-08-30T07:15:41;15.25;86.92
71175;DHT22;58876;51.994;4.472;2023-08-30T07:18:08;15.31;86.66
71175;DHT22;58876;51.994;4.472;2023-08-30T07:20:33;15.33;86.93
71175;DHT22;58876;51.994;4.472;2023-08-30T07:23:00;15.40;87.12
71175;DHT22;58876;51.994;4.472;2023-08-30T07:25:26;15.49;86.53
71175;DHT22;58876;51.994;4.472;2023-08-30T07:27:51;15.64;86.37
71175;DHT22;58876;51.994;4.472;2023-08-30T07:30:17;15.70;85.94
71175;DHT22;58876;51.994;4.472;2023-08-30T07:32:43;15.93;86.22
71175;DHT22;58876;51.994;4.472;2023-08-30T07:35:08;15.70;85.60
71175;DHT22;58876;51.994;4.472;2023-08-30T07:37:34;15.71;85.94
71175;DHT22;58876;51.994;4.472;2023-08-30T07:40:01;15.70;85.89
71175;DHT22;58876;51.994;4.472;2023-08-30T07:42:26;15.60;86.41
71175;DHT22;58876;51.994;4.472;2023-08-30T07:44:52;15.53;86.69
71175;DHT22;58876;51.994;4.472;2023-08-30T07:47:17;15.26;86.63
71175;DHT22;58876;51.994;4.472;2023-08-30T07:49:43;15.35;87.21
71175;DHT22;58876;51.994;4.472;2023-08-30T07:52:08;15.24;87.08
71175;DHT22;58876;51.994;4.472;2023-08-30T07:54:37;15.45;87.37
71175;DHT22;58876;51.994;4.472;2023-08-30T07:57:04;15.50;86.84
71175;DHT22;58876;51.994;4.472;2023-08-30T07:59:32;15.45;87.08
71175;DHT22;58876;51.994;4.472;2023-08-30T08:01:57;15.57;86.96
71175;DHT22;58876;51.994;4.472;2023-08-30T08:04:23;15.39;86.98
71175;DHT22;58876;51.994;4.472;2023-08-30T08:06:48;15.60;87.10
71175;DHT22;58876;51.994;4.472;2023-08-30T08:09:14;15.77;87.05
71175;DHT22;58876;51.994;4.472;2023-08-30T08:11:40;15.71;86.74
71175;DHT22;58876;51.994;4.472;2023-08-30T08:14:10;15.94;86.79
71175;DHT22;58876;51.994;4.472;2023-08-30T08:16:36;16.03;86.41
71175;DHT22;58876;51.994;4.472;2023-08-30T08:19:02;16.03;86.39
71175;DHT22;58876;51.994;4.472;2023-08-30T08:21:28;16.35;86.68
71175;DHT22;58876;51.994;4.472;2023-08-30T08:23:53;16.25;86.19
71175;DHT22;58876;51.994;4.472;2023-08-30T08:26:19;16.26;86.50
71175;DHT22;58876;51.994;4.472;2023-08-30T08:28:44;16.28;86.71
71175;DHT22;58876;51.994;4.472;2023-08-30T08:31:10;16.36;86.56
71175;DHT22;58876;51.994;4.472;2023-08-30T08:33:36;16.94;86.60
71175;DHT22;58876;51.994;4.472;2023-08-30T08:36:01;17.85;84.11
71175;DHT22;58876;51.994;4.472;2023-08-30T08:38:27;17.72;82.89
71175;DHT22;58876;51.994;4.472;2023-08-30T08:41:05;18.16;82.99
71175;DHT22;58876;51.994;4.472;2023-08-30T08:43:34;19.39;79.70
71175;DHT22;58876;51.994;4.472;2023-08-30T08:46:03;20.35;76.91
71175;DHT22;58876;51.994;4.472;2023-08-30T08:48:31;19.32;76.51
71175;DHT22;58876;51.994;4.472;2023-08-30T08:50:58;18.68;78.51
71175;DHT22;58876;51.994;4.472;2023-08-30T08:53:24;18.05;79.45
71175;DHT22;58876;51.994;4.472;2023-08-30T08:55:51;18.12;80.02
71175;DHT22;58876;51.994;4.472;2023-08-30T08:58:17;18.95;77.61
71175;DHT22;58876;51.994;4.472;2023-08-30T09:00:43;19.28;76.87
71175;DHT22;58876;51.994;4.472;2023-08-30T09:03:10;18.90;75.63
71175;DHT22;58876;51.994;4.472;2023-08-30T09:05:39;18.51;76.69
71175;DHT22;58876;51.994;4.472;2023-08-30T09:08:05;18.56;76.32
71175;DHT22;58876;51.994;4.472;2023-08-30T09:10:32;18.39;76.12
71175;DHT22;58876;51.994;4.472;2023-08-30T09:12:58;18.46;75.03
71175;DHT22;58876;51.994;4.472;2023-08-30T09:15:33;19.01;73.85
71175;DHT22;58876;51.994;4.472;2023-08-30T09:17:59;19.30;72.10
71175;DHT22;58876;51.994;4.472;2023-08-30T09:20:24;19.56;71.00
71175;DHT22;58876;51.994;4.472;2023-08-30T09:22:50;19.57;68.58
71175;DHT22;58876;51.994;4.472;2023-08-30T09:25:26;19.35;68.84
71175;DHT22;58876;51.994;4.472;2023-08-30T09:27:57;19.71;69.40
71175;DHT22;58876;51.994;4.472;2023-08-30T09:30:24;19.98;68.67
71175;DHT22;58876;51.994;4.472;2023-08-30T09:32:50;19.59;66.87
71175;DHT22;58876;51.994;4.472;2023-08-30T09:35:16;19.39;67.94
71175;DHT22;58876;51.994;4.472;2023-08-30T09:37:44;19.32;68.62
71175;DHT22;58876;51.994;4.472;2023-08-30T09:40:10;19.04;67.26
71175;DHT22;58876;51.994;4.472;2023-08-30T09:42:41;19.32;65.87
71175;DHT22;58876;51.994;4.472;2023-08-30T09:45:21;19.55;67.17
71175;DHT22;58876;51.994;4.472;2023-08-30T09:47:50;19.32;66.04
71175;DHT22;58876;51.994;4.472;2023-08-30T09:50:20;19.16;65.14
71175;DHT22;58876;51.994;4.472;2023-08-30T09:52:49;19.23;65.72
71175;DHT22;58876;51.994;4.472;2023-08-30T09:55:18;19.28;66.06
71175;DHT22;58876;51.994;4.472;2023-08-30T09:57:44;19.32;66.89
71175;DHT22;58876;51.994;4.472;2023-08-30T10:00:11;18.97;65.05
71175;DHT22;58876;51.994;4.472;2023-08-30T10:02:42;18.47;65.93
71175;DHT22;58876;51.994;4.472;2023-08-30T10:05:10;18.19;67.12
71175;DHT22;58876;51.994;4.472;2023-08-30T10:07:37;18.17;68.96
71175;DHT22;58876;51.994;4.472;2023-08-30T10:10:03;18.30;69.62
71175;DHT22;58876;51.994;4.472;2023-08-30T10:12:32;18.47;68.26
71175;DHT22;58876;51.994;4.472;2023-08-30T10:14:58;18.44;68.67
71175;DHT22;58876;51.994;4.472;2023-08-30T10:17:27;18.37;67.84
71175;DHT22;58876;51.994;4.472;2023-08-30T10:19:55;18.33;68.30
71175;DHT22;58876;51.994;4.472;2023-08-30T10:22:22;18.39;69.05
71175;DHT22;58876;51.994;4.472;2023-08-30T10:24:55;18.41;68.68
71175;DHT22;58876;51.994;4.472;2023-08-30T10:27:24;18.74;71.02
71175;DHT22;58876;51.994;4.472;2023-08-30T10:29:50;18.81;68.89
71175;DHT22;58876;51.994;4.472;2023-08-30T10:32:21;18.81;65.24
71175;DHT22;58876;51.994;4.472;2023-08-30T10:34:50;19.07;63.01
71175;DHT22;58876;51.994;4.472;2023-08-30T10:37:22;19.45;63.21
71175;DHT22;58876;51.994;4.472;2023-08-30T10:39:49;19.63;61.29
71175;DHT22;58876;51.994;4.472;2023-08-30T10:42:16;19.52;60.27
71175;DHT22;58876;51.994;4.472;2023-08-30T10:45:00;19.53;61.53
71175;DHT22;58876;51.994;4.472;2023-08-30T10:47:31;19.56;60.80
71175;DHT22;58876;51.994;4.472;2023-08-30T10:49:59;19.56;60.65
71175;DHT22;58876;51.994;4.472;2023-08-30T10:52:26;19.70;60.27
71175;DHT22;58876;51.994;4.472;2023-08-30T10:54:52;20.04;60.99
71175;DHT22;58876;51.994;4.472;2023-08-30T10:57:23;20.07;59.69
71175;DHT22;58876;51.994;4.472;2023-08-30T11:00:11;19.71;59.34
71175;DHT22;58876;51.994;4.472;2023-08-30T11:02:44;19.62;60.47
71175;DHT22;58876;51.994;4.472;2023-08-30T11:05:11;19.46;61.99
71175;DHT22;58876;51.994;4.472;2023-08-30T11:07:37;19.19;61.41
71175;DHT22;58876;51.994;4.472;2023-08-30T11:10:07;19.33;61.65
71175;DHT22;58876;51.994;4.472;2023-08-30T11:12:34;19.46;61.63
71175;DHT22;58876;51.994;4.472;2023-08-30T11:15:01;19.39;61.79
71175;DHT22;58876;51.994;4.472;2023-08-30T11:17:28;19.79;62.32
71175;DHT22;58876;51.994;4.472;2023-08-30T11:20:10;20.22;62.23
71175;DHT22;58876;51.994;4.472;2023-08-30T11:22:43;20.49;59.71
71175;DHT22;58876;51.994;4.472;2023-08-30T11:25:10;20.49;59.81
71175;DHT22;58876;51.994;4.472;2023-08-30T11:27:39;19.74;60.04
71175;DHT22;58876;51.994;4.472;2023-08-30T11:30:06;19.80;62.11
71175;DHT22;58876;51.994;4.472;2023-08-30T11:32:37;20.03;58.95
71175;DHT22;58876;51.994;4.472;2023-08-30T11:35:03;20.14;58.43
71175;DHT22;58876;51.994;4.472;2023-08-30T11:37:30;20.17;58.86
71175;DHT22;58876;51.994;4.472;2023-08-30T11:39:56;20.25;59.10
71175;DHT22;58876;51.994;4.472;2023-08-30T11:42:22;20.11;57.17
71175;DHT22;58876;51.994;4.472;2023-08-30T11:44:47;20.45;57.29
71175;DHT22;58876;51.994;4.472;2023-08-30T11:47:23;20.51;58.18
71175;DHT22;58876;51.994;4.472;2023-08-30T11:49:50;20.79;58.53
71175;DHT22;58876;51.994;4.472;2023-08-30T11:52:18;20.24;59.67
71175;DHT22;58876;51.994;4.472;2023-08-30T11:54:47;19.97;59.90
71175;DHT22;58876;51.994;4.472;2023-08-30T11:57:13;20.21;60.88
71175;DHT22;58876;51.994;4.472;2023-08-30T11:59:39;20.52;59.68
71175;DHT22;58876;51.994;4.472;2023-08-30T12:02:06;20.86;59.45
71175;DHT22;58876;51.994;4.472;2023-08-30T12:04:32;20.76;58.42
71175;DHT22;58876;51.994;4.472;2023-08-30T12:06:58;19.96;59.42
71175;DHT22;58876;51.994;4.472;2023-08-30T12:09:30;19.63;61.91
71175;DHT22;58876;51.994;4.472;2023-08-30T12:12:10;19.20;65.20
71175;DHT22;58876;51.994;4.472;2023-08-30T12:14:38;18.83;67.31
71175;DHT22;58876;51.994;4.472;2023-08-30T12:17:05;18.19;70.29
71175;DHT22;58876;51.994;4.472;2023-08-30T12:19:31;17.88;71.88
71175;DHT22;58876;51.994;4.472;2023-08-30T12:22:03;17.58;72.55
71175;DHT22;58876;51.994;4.472;2023-08-30T12:24:40;17.64;73.47
71175;DHT22;58876;51.994;4.472;2023-08-30T12:27:06;17.81;71.04
71175;DHT22;58876;51.994;4.472;2023-08-30T12:29:31;18.02;71.86
71175;DHT22;58876;51.994;4.472;2023-08-30T12:31:56;18.30;69.97
71175;DHT22;58876;51.994;4.472;2023-08-30T12:34:22;18.39;69.99
71175;DHT22;58876;51.994;4.472;2023-08-30T12:36:47;18.74;67.51
71175;DHT22;58876;51.994;4.472;2023-08-30T12:39:13;18.49;67.20
71175;DHT22;58876;51.994;4.472;2023-08-30T12:41:38;18.59;67.59
71175;DHT22;58876;51.994;4.472;2023-08-30T12:44:06;18.51;68.39
71175;DHT22;58876;51.994;4.472;2023-08-30T12:46:32;18.33;65.57
71175;DHT22;58876;51.994;4.472;2023-08-30T12:48:57;18.22;67.06
71175;DHT22;58876;51.994;4.472;2023-08-30T12:51:23;18.47;66.26
71175;DHT22;58876;51.994;4.472;2023-08-30T12:53:48;18.92;65.50
71175;DHT22;58876;51.994;4.472;2023-08-30T12:56:14;19.50;64.86
71175;DHT22;58876;51.994;4.472;2023-08-30T12:58:39;19.62;61.61
71175;DHT22;58876;51.994;4.472;2023-08-30T13:01:04;19.63;62.15
71175;DHT22;58876;51.994;4.472;2023-08-30T13:03:30;19.74;60.00
71175;DHT22;58876;51.994;4.472;2023-08-30T13:05:55;19.55;59.32
71175;DHT22;58876;51.994;4.472;2023-08-30T13:08:21;19.66;61.69
71175;DHT22;58876;51.994;4.472;2023-08-30T13:10:46;19.45;62.09
71175;DHT22;58876;51.994;4.472;2023-08-30T13:13:12;19.23;62.46
71175;DHT22;58876;51.994;4.472;2023-08-30T13:15:38;19.20;63.22
71175;DHT22;58876;51.994;4.472;2023-08-30T13:18:04;19.14;63.57
71175;DHT22;58876;51.994;4.472;2023-08-30T13:20:29;19.04;63.42
71175;DHT22;58876;51.994;4.472;2023-08-30T13:22:55;19.12;63.71
71175;DHT22;58876;51.994;4.472;2023-08-30T13:25:20;19.18;62.12
71175;DHT22;58876;51.994;4.472;2023-08-30T13:27:46;19.40;62.62
71175;DHT22;58876;51.994;4.472;2023-08-30T13:30:12;19.48;62.41
71175;DHT22;58876;51.994;4.472;2023-08-30T13:32:38;19.14;64.15
71175;DHT22;58876;51.994;4.472;2023-08-30T13:35:03;18.83;64.28
71175;DHT22;58876;51.994;4.472;2023-08-30T13:37:29;18.70;64.80
71175;DHT22;58876;51.994;4.472;2023-08-30T13:39:54;18.41;65.05
71175;DHT22;58876;51.994;4.472;2023-08-30T13:42:20;18.39;65.26
71175;DHT22;58876;51.994;4.472;2023-08-30T13:44:49;18.29;65.38
71175;DHT22;58876;51.994;4.472;2023-08-30T13:47:15;18.32;65.16
71175;DHT22;58876;51.994;4.472;2023-08-30T13:49:42;18.25;65.41
71175;DHT22;58876;51.994;4.472;2023-08-30T13:52:07;18.40;65.50
71175;DHT22;58876;51.994;4.472;2023-08-30T13:54:32;18.70;63.76
71175;DHT22;58876;51.994;4.472;2023-08-30T13:56:58;18.70;63.26
71175;DHT22;58876;51.994;4.472;2023-08-30T13:59:24;18.50;63.49
71175;DHT22;58876;51.994;4.472;2023-08-30T14:01:49;18.26;65.20
71175;DHT22;58876;51.994;4.472;2023-08-30T14:04:15;18.26;66.80
71175;DHT22;58876;51.994;4.472;2023-08-30T14:06:40;18.02;66.53
71175;DHT22;58876;51.994;4.472;2023-08-30T14:09:06;17.95;67.21
71175;DHT22;58876;51.994;4.472;2023-08-30T14:11:34;18.02;67.13
71175;DHT22;58876;51.994;4.472;2023-08-30T14:14:02;18.25;66.92
71175;DHT22;58876;51.994;4.472;2023-08-30T14:16:27;18.25;66.97
71175;DHT22;58876;51.994;4.472;2023-08-30T14:18:53;18.19;66.99
71175;DHT22;58876;51.994;4.472;2023-08-30T14:21:18;18.49;68.07
71175;DHT22;58876;51.994;4.472;2023-08-30T14:23:44;18.72;66.58
71175;DHT22;58876;51.994;4.472;2023-08-30T14:26:09;18.80;66.28
71175;DHT22;58876;51.994;4.472;2023-08-30T14:28:36;18.87;65.55
71175;DHT22;58876;51.994;4.472;2023-08-30T14:31:02;19.01;64.52
71175;DHT22;58876;51.994;4.472;2023-08-30T14:33:29;19.09;64.51
71175;DHT22;58876;51.994;4.472;2023-08-30T14:35:54;19.38;62.44
71175;DHT22;58876;51.994;4.472;2023-08-30T14:38:22;19.66;61.61
71175;DHT22;58876;51.994;4.472;2023-08-30T14:41:00;19.73;59.58
71175;DHT22;58876;51.994;4.472;2023-08-30T14:43:27;19.94;57.72
71175;DHT22;58876;51.994;4.472;2023-08-30T14:46:03;19.84;58.21
71175;DHT22;58876;51.994;4.472;2023-08-30T14:48:29;19.74;58.28
71175;DHT22;58876;51.994;4.472;2023-08-30T14:50:57;19.56;59.04
71175;DHT22;58876;51.994;4.472;2023-08-30T14:53:23;19.53;57.88
71175;DHT22;58876;51.994;4.472;2023-08-30T14:55:48;19.55;58.31
71175;DHT22;58876;51.994;4.472;2023-08-30T14:58:14;19.57;58.65
71175;DHT22;58876;51.994;4.472;2023-08-30T15:00:40;19.53;59.58
71175;DHT22;58876;51.994;4.472;2023-08-30T15:03:06;19.71;59.37
71175;DHT22;58876;51.994;4.472;2023-08-30T15:05:31;19.66;60.65
71175;DHT22;58876;51.994;4.472;2023-08-30T15:07:57;19.36;60.21
71175;DHT22;58876;51.994;4.472;2023-08-30T15:10:22;19.18;60.31
71175;DHT22;58876;51.994;4.472;2023-08-30T15:12:48;19.23;59.42
71175;DHT22;58876;51.994;4.472;2023-08-30T15:15:16;18.91;59.68
71175;DHT22;58876;51.994;4.472;2023-08-30T15:17:44;18.75;60.97
71175;DHT22;58876;51.994;4.472;2023-08-30T15:20:09;18.60;61.00
71175;DHT22;58876;51.994;4.472;2023-08-30T15:22:35;18.59;61.22
71175;DHT22;58876;51.994;4.472;2023-08-30T15:25:01;18.32;60.66
71175;DHT22;58876;51.994;4.472;2023-08-30T15:27:34;18.67;61.48